createdAt,value
2019-05-28T00:01:21.710Z,2.63
2019-05-28T00:03:50.395Z,2.73
2019-05-28T00:06:19.079Z,2.40
2019-05-28T00:08:47.878Z,2.43
2019-05-28T00:11:16.862Z,2.43
2019-05-28T00:13:45.832Z,2.50
2019-05-28T00:16:14.787Z,2.50
2019-05-28T00:18:43.474Z,2.30
2019-05-28T00:21:12.518Z,3.10
2019-05-28T00:23:41.238Z,2.63
2019-05-28T00:26:10.204Z,2.50
2019-05-28T00:28:38.882Z,2.60
2019-05-28T00:31:07.619Z,2.43
2019-05-28T00:33:36.304Z,2.60
2019-05-28T00:36:05.182Z,2.47
2019-05-28T00:38:33.890Z,2.67
2019-05-28T00:41:02.575Z,2.70
2019-05-28T00:43:31.258Z,3.40
2019-05-28T00:46:00.097Z,2.93
2019-05-28T00:48:28.810Z,2.50
2019-05-28T00:50:57.821Z,2.50
2019-05-28T00:53:26.535Z,2.73
2019-05-28T00:55:55.918Z,2.80
2019-05-28T00:58:25.706Z,2.33
2019-05-28T01:00:54.740Z,2.80
2019-05-28T01:03:23.424Z,2.87
2019-05-28T01:05:52.111Z,3.00
2019-05-28T01:08:20.817Z,3.37
2019-05-28T01:10:49.509Z,3.10
2019-05-28T01:13:18.208Z,3.53
2019-05-28T01:15:46.926Z,3.50
2019-05-28T01:18:15.607Z,3.40
2019-05-28T01:20:44.289Z,3.70
2019-05-28T01:23:13.005Z,3.17
2019-05-28T01:25:42.346Z,3.30
2019-05-28T01:28:11.026Z,2.80
2019-05-28T01:30:54.056Z,2.70
2019-05-28T01:33:10.079Z,2.17
2019-05-28T01:35:38.765Z,2.30
2019-05-28T01:38:08.612Z,2.60
2019-05-28T01:40:37.458Z,2.47
2019-05-28T01:43:06.147Z,2.80
2019-05-28T01:45:42.272Z,3.93
2019-05-28T01:48:10.890Z,3.17
2019-05-28T01:50:39.558Z,2.87
2019-05-28T01:53:08.436Z,3.00
2019-05-28T01:55:37.116Z,3.27
2019-05-28T01:58:05.799Z,2.90
2019-05-28T02:00:34.574Z,2.80
2019-05-28T02:03:03.651Z,2.70
2019-05-28T02:05:32.335Z,2.40
2019-05-28T02:08:01.199Z,2.47
2019-05-28T02:10:29.879Z,2.70
2019-05-28T02:12:58.550Z,2.37
2019-05-28T02:15:27.258Z,2.53
2019-05-28T02:17:55.949Z,2.27
2019-05-28T02:20:24.634Z,1.90
2019-05-28T02:22:53.378Z,2.40
2019-05-28T02:25:22.053Z,2.30
2019-05-28T02:27:50.734Z,2.40
2019-05-28T02:30:20.243Z,2.20
2019-05-28T02:32:48.926Z,2.30
2019-05-28T02:35:19.210Z,1.93
2019-05-28T02:37:47.925Z,2.23
2019-05-28T02:40:17.319Z,2.30
2019-05-28T02:42:45.993Z,2.20
2019-05-28T02:45:16.762Z,2.27
2019-05-28T02:47:45.445Z,2.50
2019-05-28T02:50:14.932Z,4.37
2019-05-28T02:52:44.431Z,2.47
2019-05-28T02:55:14.510Z,2.40
2019-05-28T02:57:44.410Z,2.67
2019-05-28T03:00:15.966Z,2.53
2019-05-28T03:02:49.173Z,2.30
2019-05-28T03:05:18.527Z,2.57
2019-05-28T03:07:50.638Z,2.97
2019-05-28T03:10:22.265Z,2.60
2019-05-28T03:12:50.962Z,3.60
2019-05-28T03:15:19.674Z,3.40
2019-05-28T03:17:48.886Z,3.47
2019-05-28T03:20:18.686Z,3.77
2019-05-28T03:22:49.142Z,3.80
2019-05-28T03:25:20.251Z,3.50
2019-05-28T03:27:48.925Z,3.43
2019-05-28T03:30:17.643Z,3.30
2019-05-28T03:32:46.784Z,3.40
2019-05-28T03:35:15.816Z,3.43
2019-05-28T03:37:46.882Z,3.20
2019-05-28T03:40:18.443Z,3.50
2019-05-28T03:42:47.206Z,3.40
2019-05-28T03:45:15.914Z,3.53
2019-05-28T03:47:44.601Z,3.10
2019-05-28T03:50:13.395Z,3.80
2019-05-28T03:52:42.087Z,3.30
2019-05-28T03:55:10.875Z,3.30
2019-05-28T03:57:39.585Z,3.03
2019-05-28T04:00:08.465Z,3.40
2019-05-28T04:02:37.150Z,3.23
2019-05-28T04:05:06.222Z,3.07
2019-05-28T04:07:34.905Z,3.13
2019-05-28T04:10:04.321Z,3.00
2019-05-28T04:12:33.054Z,2.60
2019-05-28T04:15:01.749Z,2.30
2019-05-28T04:17:30.768Z,2.40
2019-05-28T04:19:59.769Z,2.40
2019-05-28T04:22:28.449Z,2.17
2019-05-28T04:24:57.135Z,2.17
2019-05-28T04:27:25.850Z,2.27
2019-05-28T04:29:54.559Z,2.23
2019-05-28T04:32:38.988Z,2.20
2019-05-28T04:34:53.714Z,2.03
2019-05-28T04:37:22.398Z,2.30
2019-05-28T04:39:51.135Z,1.90
2019-05-28T04:42:20.436Z,1.97
2019-05-28T04:44:49.118Z,2.10
2019-05-28T04:47:17.801Z,2.30
2019-05-28T04:49:46.510Z,2.20
2019-05-28T04:52:15.198Z,3.20
2019-05-28T04:54:43.886Z,2.73
2019-05-28T04:57:12.674Z,2.70
2019-05-28T04:59:41.358Z,2.80
2019-05-28T05:02:10.001Z,2.70
2019-05-28T05:04:38.671Z,2.30
2019-05-28T05:07:07.355Z,2.73
2019-05-28T05:09:36.038Z,2.40
2019-05-28T05:12:04.886Z,2.70
2019-05-28T05:14:33.575Z,2.30
2019-05-28T05:17:02.326Z,2.90
2019-05-28T05:19:31.054Z,2.90
2019-05-28T05:21:59.822Z,2.90
2019-05-28T05:24:28.780Z,2.20
2019-05-28T05:26:57.742Z,2.90
2019-05-28T05:29:26.454Z,2.77
2019-05-28T05:31:55.201Z,2.00
2019-05-28T05:34:23.923Z,2.07
2019-05-28T05:36:52.947Z,1.90
2019-05-28T05:39:21.626Z,1.63
2019-05-28T05:41:50.398Z,1.80
2019-05-28T05:44:19.112Z,1.80
2019-05-28T05:46:47.795Z,1.60
2019-05-28T05:49:16.488Z,2.40
2019-05-28T05:51:45.097Z,1.77
2019-05-28T05:54:13.708Z,2.00
2019-05-28T05:56:42.413Z,2.00
2019-05-28T05:59:11.366Z,1.73
2019-05-28T06:01:40.055Z,1.53
2019-05-28T06:04:08.920Z,1.70
2019-05-28T06:06:37.951Z,1.57
2019-05-28T06:09:07.898Z,1.67
2019-05-28T06:11:37.195Z,1.73
2019-05-28T06:14:05.881Z,1.50
2019-05-28T06:16:34.610Z,1.63
2019-05-28T06:19:03.343Z,1.57
2019-05-28T06:21:32.023Z,1.50
2019-05-28T06:24:00.762Z,1.60
2019-05-28T06:26:29.590Z,1.57
2019-05-28T06:28:58.278Z,1.50
2019-05-28T06:31:26.968Z,1.70
2019-05-28T06:33:57.439Z,1.47
2019-05-28T06:36:25.998Z,1.57
2019-05-28T06:38:54.683Z,1.23
2019-05-28T06:41:23.399Z,1.40
2019-05-28T06:43:52.084Z,1.40
2019-05-28T06:46:20.808Z,1.37
2019-05-28T06:48:49.774Z,1.57
2019-05-28T06:51:18.466Z,1.50
2019-05-28T06:53:47.456Z,1.70
2019-05-28T06:56:16.171Z,1.60
2019-05-28T06:58:44.867Z,2.00
2019-05-28T07:01:13.559Z,1.77
2019-05-28T07:03:42.268Z,2.20
2019-05-28T07:06:10.946Z,2.17
2019-05-28T07:08:40.005Z,2.30
2019-05-28T07:11:08.714Z,2.30
2019-05-28T07:13:37.398Z,2.50
2019-05-28T07:16:06.177Z,2.20
2019-05-28T07:18:34.805Z,2.33
2019-05-28T07:21:03.493Z,2.37
2019-05-28T07:23:32.177Z,2.40
2019-05-28T07:26:01.247Z,2.40
2019-05-28T07:28:29.934Z,2.77
2019-05-28T07:30:58.619Z,2.63
2019-05-28T07:33:27.455Z,2.60
2019-05-28T07:35:56.135Z,2.63
2019-05-28T07:38:24.825Z,2.73
2019-05-28T07:40:53.654Z,3.67
2019-05-28T07:43:22.328Z,2.63
2019-05-28T07:45:51.378Z,2.80
2019-05-28T07:48:20.380Z,3.67
2019-05-28T07:50:49.101Z,3.90
2019-05-28T07:53:17.777Z,4.10
2019-05-28T07:55:46.426Z,4.60
2019-05-28T07:58:15.101Z,4.73
2019-05-28T08:00:45.310Z,4.70
2019-05-28T08:03:14.022Z,3.67
2019-05-28T08:05:42.702Z,3.80
2019-05-28T08:08:12.922Z,3.13
2019-05-28T08:10:42.550Z,3.40
2019-05-28T08:13:11.229Z,3.40
2019-05-28T08:15:39.914Z,3.53
2019-05-28T08:18:08.622Z,4.10
2019-05-28T08:20:37.747Z,4.50
2019-05-28T08:23:06.427Z,5.77
2019-05-28T08:25:46.847Z,5.13
2019-05-28T08:28:19.343Z,6.30
2019-05-28T08:30:36.334Z,4.50
2019-05-28T08:33:05.246Z,5.10
2019-05-28T08:35:33.931Z,4.87
2019-05-28T08:38:02.970Z,4.80
2019-05-28T08:40:31.693Z,4.73
2019-05-28T08:43:00.394Z,4.50
2019-05-28T08:45:29.074Z,4.43
2019-05-28T08:47:57.986Z,4.30
2019-05-28T08:50:34.630Z,5.20
2019-05-28T08:52:57.583Z,4.47
2019-05-28T08:55:26.691Z,4.70
2019-05-28T08:57:55.434Z,4.50
2019-05-28T09:00:41.270Z,4.57
2019-05-28T09:03:10.259Z,4.60
2019-05-28T09:05:39.334Z,4.80
2019-05-28T09:08:08.087Z,4.93
2019-05-28T09:10:36.790Z,4.67
2019-05-28T09:13:06.122Z,4.67
2019-05-28T09:15:35.148Z,4.53
2019-05-28T09:18:04.605Z,5.57
2019-05-28T09:20:33.418Z,4.20
2019-05-28T09:23:02.494Z,3.70
2019-05-28T09:25:31.528Z,3.90
2019-05-28T09:28:00.206Z,4.23
2019-05-28T09:30:29.418Z,5.97
2019-05-28T09:32:58.246Z,5.10
2019-05-28T09:35:43.475Z,4.00
2019-05-28T09:37:57.263Z,4.23
2019-05-28T09:40:26.263Z,4.37
2019-05-28T09:42:54.943Z,4.57
2019-05-28T09:45:24.029Z,4.13
2019-05-28T09:47:55.115Z,4.77
2019-05-28T09:50:30.754Z,4.77
2019-05-28T09:52:55.450Z,5.77
2019-05-28T09:55:24.307Z,5.27
2019-05-28T09:57:52.966Z,4.80
2019-05-28T10:00:24.194Z,5.10
2019-05-28T10:02:53.341Z,5.40
2019-05-28T10:05:22.223Z,4.63
2019-05-28T10:07:50.923Z,4.80
2019-05-28T10:10:20.104Z,4.60
2019-05-28T10:12:48.778Z,3.87
2019-05-28T10:15:17.786Z,4.30
2019-05-28T10:17:46.481Z,5.03
2019-05-28T10:20:15.655Z,4.90
2019-05-28T10:22:44.454Z,4.83
2019-05-28T10:25:13.245Z,4.60
2019-05-28T10:27:59.462Z,3.80
2019-05-28T10:30:13.514Z,4.10
2019-05-28T10:32:42.296Z,3.40
2019-05-28T10:35:11.889Z,3.60
2019-05-28T10:37:40.815Z,4.07
2019-05-28T10:40:09.795Z,3.40
2019-05-28T10:42:38.479Z,2.83
2019-05-28T10:45:08.393Z,2.60
2019-05-28T10:47:37.093Z,2.00
2019-05-28T10:50:07.425Z,2.67
2019-05-28T10:52:36.210Z,2.67
2019-05-28T10:55:06.496Z,2.23
2019-05-28T10:57:35.169Z,2.40
2019-05-28T11:00:05.990Z,2.00
2019-05-28T11:02:34.672Z,2.30
2019-05-28T11:05:03.562Z,2.33
2019-05-28T11:07:32.282Z,2.47
2019-05-28T11:10:00.970Z,3.07
2019-05-28T11:12:29.726Z,2.40
2019-05-28T11:14:58.421Z,2.20
2019-05-28T11:17:27.126Z,2.00
2019-05-28T11:19:55.796Z,2.53
2019-05-28T11:22:24.514Z,1.67
2019-05-28T11:24:53.206Z,2.17
2019-05-28T11:27:23.965Z,2.10
2019-05-28T11:29:52.407Z,2.47
2019-05-28T11:32:21.087Z,2.50
2019-05-28T11:34:49.773Z,2.80
2019-05-28T11:37:18.498Z,2.50
2019-05-28T11:39:47.184Z,2.50
2019-05-28T11:42:16.208Z,2.57
2019-05-28T11:44:44.903Z,2.10
2019-05-28T11:47:13.592Z,2.20
2019-05-28T11:49:42.278Z,2.10
2019-05-28T11:52:10.991Z,2.33
2019-05-28T11:54:39.672Z,2.03
2019-05-28T11:57:08.359Z,2.30
2019-05-28T11:59:37.058Z,2.40
2019-05-28T12:02:06.008Z,2.50
2019-05-28T12:04:34.732Z,2.33
2019-05-28T12:07:03.453Z,1.83
2019-05-28T12:09:32.143Z,1.80
2019-05-28T12:12:01.010Z,1.93
2019-05-28T12:14:29.734Z,2.00
2019-05-28T12:16:58.417Z,2.30
2019-05-28T12:19:27.108Z,2.10
2019-05-28T12:21:55.827Z,2.10
2019-05-28T12:24:28.391Z,2.17
2019-05-28T12:26:54.918Z,2.37
2019-05-28T12:29:23.766Z,1.93
2019-05-28T12:31:52.470Z,2.03
2019-05-28T12:34:21.141Z,2.03
2019-05-28T12:36:49.985Z,1.67
2019-05-28T12:39:18.589Z,1.70
2019-05-28T12:42:00.996Z,1.57
2019-05-28T12:44:17.715Z,1.77
2019-05-28T12:46:46.436Z,2.00
2019-05-28T12:49:15.116Z,1.67
2019-05-28T12:51:43.785Z,1.90
2019-05-28T12:54:12.466Z,1.63
2019-05-28T12:56:41.158Z,1.70
2019-05-28T12:59:09.878Z,1.87
2019-05-28T13:01:38.565Z,1.90
2019-05-28T13:04:07.533Z,1.90
2019-05-28T13:06:36.257Z,1.80
2019-05-28T13:09:07.011Z,1.70
2019-05-28T13:11:35.680Z,2.00
2019-05-28T13:14:04.383Z,2.10
2019-05-28T13:16:33.073Z,2.13
2019-05-28T13:19:01.747Z,2.37
2019-05-28T13:21:30.465Z,2.10
2019-05-28T13:23:59.138Z,2.13
2019-05-28T13:26:27.754Z,2.07
2019-05-28T13:28:56.537Z,2.47
2019-05-28T13:31:25.379Z,2.13
2019-05-28T13:33:54.054Z,2.53
2019-05-28T13:36:22.770Z,2.23
2019-05-28T13:38:51.527Z,2.20
2019-05-28T13:41:20.210Z,2.63
2019-05-28T13:43:49.024Z,2.37
2019-05-28T13:46:17.726Z,2.50
2019-05-28T13:48:46.518Z,2.40
2019-05-28T13:51:16.658Z,2.40
2019-05-28T13:53:45.339Z,2.50
2019-05-28T13:56:14.105Z,2.57
2019-05-28T13:58:42.805Z,2.20
2019-05-28T14:01:11.835Z,2.43
2019-05-28T14:03:40.522Z,2.80
2019-05-28T14:06:09.243Z,2.20
2019-05-28T14:08:46.709Z,2.17
2019-05-28T14:11:08.747Z,2.47
2019-05-28T14:13:37.456Z,2.43
2019-05-28T14:16:06.739Z,2.20
2019-05-28T14:18:35.411Z,2.00
2019-05-28T14:21:04.327Z,2.00
2019-05-28T14:23:33.310Z,2.00
2019-05-28T14:26:01.954Z,2.10
2019-05-28T14:28:30.863Z,1.80
2019-05-28T14:31:00.629Z,1.97
2019-05-28T14:33:29.432Z,1.80
2019-05-28T14:35:58.288Z,1.80
2019-05-28T14:38:26.979Z,2.13
2019-05-28T14:40:55.754Z,1.60
2019-05-28T14:43:24.698Z,1.90
2019-05-28T14:45:53.382Z,1.80
2019-05-28T14:48:22.095Z,1.60
2019-05-28T14:50:50.818Z,1.87
2019-05-28T14:53:19.502Z,1.70
2019-05-28T14:55:48.182Z,1.50
2019-05-28T14:58:17.726Z,1.27
2019-05-28T15:00:46.399Z,1.30
2019-05-28T15:03:15.069Z,1.70
2019-05-28T15:05:43.795Z,1.40
2019-05-28T15:08:12.473Z,1.40
2019-05-28T15:10:41.511Z,1.37
2019-05-28T15:13:10.771Z,1.83
2019-05-28T15:15:39.798Z,1.50
2019-05-28T15:18:08.488Z,1.40
2019-05-28T15:20:37.211Z,1.30
2019-05-28T15:23:05.909Z,1.50
2019-05-28T15:25:34.594Z,1.40
2019-05-28T15:28:03.314Z,1.40
2019-05-28T15:30:32.353Z,1.60
2019-05-28T15:33:00.956Z,1.43
2019-05-28T15:35:29.676Z,1.50
2019-05-28T15:37:58.725Z,1.33
2019-05-28T15:40:27.774Z,1.50
2019-05-28T15:43:05.664Z,1.60
2019-05-28T15:45:27.022Z,1.60
2019-05-28T15:47:55.684Z,1.50
2019-05-28T15:50:24.623Z,1.50
2019-05-28T15:52:53.431Z,1.70
2019-05-28T15:55:22.156Z,1.40
2019-05-28T15:57:50.876Z,1.10
2019-05-28T16:00:22.314Z,1.30
2019-05-28T16:02:51.738Z,1.00
2019-05-28T16:05:20.757Z,0.90
2019-05-28T16:07:49.427Z,0.80
2019-05-28T16:10:18.246Z,1.60
2019-05-28T16:12:47.711Z,1.50
2019-05-28T16:15:16.788Z,1.30
2019-05-28T16:17:45.576Z,1.07
2019-05-28T16:20:16.388Z,1.20
2019-05-28T16:22:45.101Z,1.10
2019-05-28T16:25:14.183Z,1.00
2019-05-28T16:27:43.378Z,1.00
2019-05-28T16:30:14.839Z,1.10
2019-05-28T16:32:43.786Z,1.20
2019-05-28T16:35:12.646Z,1.33
2019-05-28T16:37:41.622Z,1.40
2019-05-28T16:40:15.424Z,1.20
2019-05-28T16:42:41.414Z,1.30
2019-05-28T16:45:12.041Z,1.60
2019-05-28T16:47:40.673Z,1.40
2019-05-28T16:50:13.347Z,1.40
2019-05-28T16:52:41.436Z,1.50
2019-05-28T16:55:11.795Z,2.33
2019-05-28T16:57:40.536Z,1.57
2019-05-28T17:00:09.522Z,1.77
2019-05-28T17:02:38.205Z,1.50
2019-05-28T17:05:08.301Z,1.50
2019-05-28T17:07:37.261Z,1.60
2019-05-28T17:10:06.938Z,1.77
2019-05-28T17:12:35.834Z,1.87
2019-05-28T17:15:06.712Z,1.70
2019-05-28T17:17:35.395Z,2.20
2019-05-28T17:20:07.429Z,1.93
2019-05-28T17:22:36.066Z,1.90
2019-05-28T17:25:12.045Z,1.97
2019-05-28T17:27:42.143Z,1.80
2019-05-28T17:30:20.619Z,1.67
2019-05-28T17:32:42.730Z,1.40
2019-05-28T17:35:11.694Z,1.73
2019-05-28T17:37:40.378Z,1.50
2019-05-28T17:40:09.435Z,1.80
2019-05-28T17:42:38.210Z,1.90
2019-05-28T17:45:07.416Z,1.50
2019-05-28T17:47:43.572Z,1.57
2019-05-28T17:50:07.705Z,1.67
2019-05-28T17:52:36.370Z,1.70
2019-05-28T17:55:07.234Z,1.50
2019-05-28T17:57:36.945Z,1.70
2019-05-28T18:00:09.077Z,1.80
2019-05-28T18:02:37.833Z,1.70
2019-05-28T18:05:07.586Z,2.03
2019-05-28T18:07:36.271Z,2.10
2019-05-28T18:10:09.970Z,1.80
2019-05-28T18:12:38.769Z,1.50
2019-05-28T18:15:08.611Z,1.60
2019-05-28T18:17:37.351Z,1.77
2019-05-28T18:20:07.311Z,1.60
2019-05-28T18:22:36.069Z,1.70
2019-05-28T18:25:06.647Z,1.80
2019-05-28T18:27:35.357Z,1.90
2019-05-28T18:30:09.941Z,1.73
2019-05-28T18:32:38.698Z,1.77
2019-05-28T18:35:08.917Z,1.67
2019-05-28T18:37:37.841Z,1.80
2019-05-28T18:40:08.966Z,1.70
2019-05-28T18:42:38.184Z,1.63
2019-05-28T18:45:08.559Z,1.73
2019-05-28T18:47:37.765Z,1.50
2019-05-28T18:50:07.972Z,1.60
2019-05-28T18:52:36.668Z,1.70
2019-05-28T18:55:07.637Z,1.73
2019-05-28T18:57:36.525Z,1.53
2019-05-28T19:00:10.207Z,1.57
2019-05-28T19:02:39.307Z,1.57
2019-05-28T19:05:08.677Z,1.63
2019-05-28T19:07:37.369Z,1.57
2019-05-28T19:10:07.349Z,1.40
2019-05-28T19:12:36.388Z,1.40
2019-05-28T19:15:07.370Z,1.30
2019-05-28T19:17:36.059Z,1.50
2019-05-28T19:20:07.701Z,1.70
2019-05-28T19:22:36.501Z,1.60
2019-05-28T19:25:09.888Z,1.67
2019-05-28T19:27:38.758Z,1.60
2019-05-28T19:30:08.162Z,1.80
2019-05-28T19:32:37.146Z,1.37
2019-05-28T19:35:08.141Z,1.53
2019-05-28T19:37:37.419Z,1.40
2019-05-28T19:40:06.914Z,1.60
2019-05-28T19:42:35.629Z,1.70
2019-05-28T19:45:06.820Z,1.50
2019-05-28T19:47:35.623Z,1.50
2019-05-28T19:50:09.126Z,1.43
2019-05-28T20:49:15.306Z,1.60
2019-05-28T20:51:43.990Z,1.60
2019-05-28T20:54:12.762Z,1.60
2019-05-28T20:56:41.393Z,1.70
2019-05-28T20:59:10.406Z,1.80
2019-05-28T21:01:39.101Z,2.00
2019-05-28T21:04:07.812Z,1.90
2019-05-28T21:06:36.499Z,1.80
2019-05-28T21:09:06.697Z,1.97
2019-05-28T21:11:35.360Z,2.00
2019-05-28T21:14:04.156Z,1.70
2019-05-28T21:16:32.859Z,1.80
2019-05-28T21:19:01.910Z,1.80
2019-05-28T21:21:30.589Z,1.80
2019-05-28T21:24:00.031Z,1.77
2019-05-28T21:26:28.898Z,2.03
2019-05-28T21:28:58.458Z,1.70
2019-05-28T21:31:27.542Z,1.90
2019-05-28T21:33:57.235Z,1.80
2019-05-28T21:36:26.045Z,1.67
2019-05-28T21:38:55.255Z,1.70
2019-05-28T21:41:24.047Z,1.70
2019-05-28T21:43:53.819Z,2.20
2019-05-28T21:46:22.509Z,2.23
2019-05-28T21:48:52.339Z,1.70
2019-05-28T21:51:21.007Z,2.00
2019-05-28T21:53:49.702Z,1.90
2019-05-28T21:56:18.668Z,1.90
2019-05-28T21:58:47.346Z,1.90
2019-05-28T22:01:19.042Z,2.00
2019-05-28T22:03:47.753Z,2.30
2019-05-28T22:06:16.586Z,2.00
2019-05-28T22:08:45.329Z,2.40
2019-05-28T22:11:13.969Z,3.07
2019-05-28T22:13:43.093Z,9.90
2019-05-28T22:16:12.106Z,8.67
2019-05-28T22:18:40.828Z,3.77
2019-05-28T22:21:09.710Z,2.50
2019-05-28T22:23:38.390Z,2.20
2019-05-28T22:26:07.209Z,2.10
2019-05-28T22:28:35.814Z,2.10
2019-05-28T22:31:04.601Z,2.30
2019-05-28T22:33:33.926Z,2.00
2019-05-28T22:36:03.450Z,2.00
2019-05-28T22:38:32.446Z,2.50
2019-05-28T22:41:02.380Z,2.50
2019-05-28T22:43:32.081Z,2.60
2019-05-28T22:46:01.294Z,2.20
2019-05-28T22:48:30.466Z,2.27
2019-05-28T22:50:59.395Z,3.20
2019-05-28T22:53:28.163Z,3.50
2019-05-28T22:55:57.877Z,3.20
2019-05-28T22:58:26.625Z,2.70
2019-05-28T23:00:55.310Z,2.70
2019-05-28T23:03:24.018Z,2.53
2019-05-28T23:05:52.706Z,2.40
2019-05-28T23:08:21.398Z,2.10
2019-05-28T23:10:50.127Z,2.10
2019-05-28T23:13:18.877Z,2.10
2019-05-28T23:15:47.566Z,2.17
2019-05-28T23:18:16.278Z,2.37
2019-05-28T23:20:44.963Z,2.30
2019-05-28T23:23:13.975Z,2.43
2019-05-28T23:25:42.740Z,2.93
2019-05-28T23:28:11.814Z,2.20
2019-05-28T23:30:40.961Z,2.37
2019-05-28T23:33:12.515Z,2.40
2019-05-28T23:35:40.034Z,2.20
2019-05-28T23:38:09.092Z,2.03
2019-05-28T23:40:37.935Z,2.10
2019-05-28T23:43:07.426Z,2.10
2019-05-28T23:45:36.208Z,2.30
2019-05-28T23:48:08.560Z,2.10
2019-05-28T23:50:36.382Z,2.10
2019-05-28T23:53:05.658Z,2.33
2019-05-28T23:55:34.462Z,2.33
2019-05-28T23:58:03.158Z,2.67
